Time;durP1;ratioP1;P1;durP2;ratioP2;P2;SDS_P1;SDS_P2;PMS_P1;PMS_P2;Temp;Humidity;BMP_temperature;BMP_pressure;BME280_temperature;BME280_humidity;BME280_pressure;Samples;Min_cycle;Max_cycle;Signal;HPM_P1;HPM_P2
2020/12/24 00:01:15;;;;;;;;;;;;;;;;;;6305368;22;19902;-82
2020/12/24 00:03:41;;;;;;;;;;;;;;;;;;6305379;22;20239;-83
2020/12/24 00:06:07;;;;;;;;;;;;;;;;;;6304703;22;19984;-83
2020/12/24 00:08:32;;;;;;;;;;;;;;;;;;6305314;22;19903;-82
2020/12/24 00:10:58;;;;;;;;;;;;;;;;;;6305240;22;19899;-82
2020/12/24 00:13:24;;;;;;;;;;;;;;;;;;6305267;22;19913;-83
2020/12/24 00:15:50;;;;;;;;;;;;;;;;;;6305240;22;19957;-83
2020/12/24 00:18:16;;;;;;;;;;;;;;;;;;6304715;22;19899;-81
2020/12/24 00:20:42;;;;;;;;;;;;;;;;;;6305272;22;19981;-81
2020/12/24 00:23:08;;;;;;;;;;;;;;;;;;6303934;22;19998;-80
2020/12/24 00:25:34;;;;;;;;;;;;;;;;;;6305281;22;19903;-80
2020/12/24 00:28:00;;;;;;;;;;;;;;;;;;6305470;22;19930;-83
2020/12/24 00:30:25;;;;;;;;;;;;;;;;;;6305128;22;19982;-82
2020/12/24 00:32:51;;;;;;;;;;;;;;;;;;6305532;22;19903;-80
2020/12/24 00:35:17;;;;;;;;;;;;;;;;;;6305348;22;19899;-81
2020/12/24 00:37:43;;;;;;;;;;;;;;;;;;6303566;22;19906;-82
2020/12/24 00:40:09;;;;;;;;;;;;;;;;;;6304794;22;20322;-81
2020/12/24 00:42:35;;;;;;;;;;;;;;;;;;6304711;22;19911;-81
2020/12/24 00:45:01;;;;;;;;;;;;;;;;;;6305229;22;19921;-81
2020/12/24 00:47:27;;;;;;;;;;;;;;;;;;6304971;22;19939;-82
2020/12/24 00:49:54;;;;;;;;;;;;;;;;;;6305182;22;19977;-82
2020/12/24 00:52:19;;;;;;;;;;;;;;;;;;6305009;22;19899;-82
2020/12/24 00:54:45;;;;;;;;;;;;;;;;;;6304960;22;19905;-82
2020/12/24 00:57:11;;;;;;;;;;;;;;;;;;6305172;22;19906;-80
2020/12/24 00:59:37;;;;;;;;;;;;;;;;;;6305006;22;19902;-81
2020/12/24 01:02:03;;;;;;;;;;;;;;;;;;6304554;22;19946;-82
2020/12/24 01:04:29;;;;;;;;;;;;;;;;;;6305152;22;20001;-82
2020/12/24 01:06:55;;;;;;;;;;;;;;;;;;6305044;22;19960;-82
2020/12/24 01:09:21;;;;;;;;;;;;;;;;;;6304908;22;19902;-82
2020/12/24 01:11:46;;;;;;;;;;;;;;;;;;6304931;22;19952;-81
2020/12/24 01:14:12;;;;;;;;;;;;;;;;;;6305082;22;19903;-82
2020/12/24 01:16:38;;;;;;;;;;;;;;;;;;6304766;22;19899;-82
2020/12/24 01:19:04;;;;;;;;;;;;;;;;;;6304928;22;19910;-81
2020/12/24 01:21:30;;;;;;;;;;;;;;;;;;6304953;22;19910;-82
2020/12/24 01:23:56;;;;;;;;;;;;;;;;;;6304646;22;19899;-82
2020/12/24 01:26:22;;;;;;;;;;;;;;;;;;6304638;22;19899;-81
2020/12/24 01:28:48;;;;;;;;;;;;;;;;;;6305001;22;19906;-82
2020/12/24 01:31:14;;;;;;;;;;;;;;;;;;6306478;22;19895;-82
2020/12/24 01:33:39;;;;;;;;;;;;;;;;;;6305552;22;19948;-82
2020/12/24 01:36:05;;;;;;;;;;;;;;;;;;6307074;22;19899;-81
2020/12/24 01:38:31;;;;;;;;;;;;;;;;;;6306779;22;19899;-82
2020/12/24 01:40:57;;;;;;;;;;;;;;;;;;6306734;22;19911;-82
2020/12/24 01:43:23;;;;;;;;;;;;;;;;;;6306682;22;19910;-82
2020/12/24 01:45:49;;;;;;;;;;;;;;;;;;6306911;22;19906;-82
2020/12/24 01:48:15;;;;;;;;;;;;;;;;;;6306793;22;19903;-82
2020/12/24 01:50:41;;;;;;;;;;;;;;;;;;6306631;22;19909;-82
2020/12/24 01:53:07;;;;;;;;;;;;;;;;;;6306721;22;19899;-82
2020/12/24 01:55:33;;;;;;;;;;;;;;;;;;6306253;22;19952;-82
2020/12/24 01:57:58;;;;;;;;;;;;;;;;;;6306496;22;19899;-82
2020/12/24 02:00:24;;;;;;;;;;;;;;;;;;6306321;22;20204;-82
2020/12/24 02:02:50;;;;;;;;;;;;;;;;;;6307138;22;19938;-82
2020/12/24 02:05:16;;;;;;;;;;;;;;;;;;6305159;22;19956;-81
2020/12/24 02:07:42;;;;;;;;;;;;;;;;;;6306614;22;19899;-82
2020/12/24 02:10:08;;;;;;;;;;;;;;;;;;6306097;22;19945;-81
2020/12/24 02:12:34;;;;;;;;;;;;;;;;;;6304645;22;19906;-82
2020/12/24 02:15:00;;;;;;;;;;;;;;;;;;6306835;22;19960;-80
2020/12/24 02:17:26;;;;;;;;;;;;;;;;;;6306008;22;20315;-80
2020/12/24 02:19:52;;;;;;;;;;;;;;;;;;6306812;22;19903;-81
2020/12/24 02:22:18;;;;;;;;;;;;;;;;;;6306389;22;19907;-81
2020/12/24 02:24:44;;;;;;;;;;;;;;;;;;6306669;22;19903;-82
2020/12/24 02:27:09;;;;;;;;;;;;;;;;;;6306082;22;19905;-81
2020/12/24 02:29:35;;;;;;;;;;;;;;;;;;6305764;22;19974;-81
2020/12/24 02:32:01;;;;;;;;;;;;;;;;;;6304886;22;19921;-81
2020/12/24 02:34:27;;;;;;;;;;;;;;;;;;6306209;22;19899;-82
2020/12/24 02:36:53;;;;;;;;;;;;;;;;;;6306686;22;19979;-81
2020/12/24 02:39:19;;;;;;;;;;;;;;;;;;6305164;22;20021;-81
2020/12/24 02:41:45;;;;;;;;;;;;;;;;;;6305596;22;20377;-81
2020/12/24 02:44:11;;;;;;;;;;;;;;;;;;6306273;22;19903;-81
2020/12/24 02:46:37;;;;;;;;;;;;;;;;;;6304711;22;19903;-81
2020/12/24 02:49:03;;;;;;;;;;;;;;;;;;6306556;22;19899;-81
2020/12/24 02:51:29;;;;;;;;;;;;;;;;;;6306623;22;20232;-81
2020/12/24 02:53:54;;;;;;;;;;;;;;;;;;6306150;22;19902;-81
2020/12/24 02:56:20;;;;;;;;;;;;;;;;;;6305972;22;19934;-80
2020/12/24 02:58:46;;;;;;;;;;;;;;;;;;6306284;22;19898;-81
2020/12/24 03:01:12;;;;;;;;;;;;;;;;;;6306152;22;19899;-80
2020/12/24 03:03:38;;;;;;;;;;;;;;;;;;6306052;22;19952;-82
2020/12/24 03:06:04;;;;;;;;;;;;;;;;;;6306460;22;19898;-81
2020/12/24 03:08:30;;;;;;;;;;;;;;;;;;6306045;22;20282;-81
2020/12/24 03:10:56;;;;;;;;;;;;;;;;;;6306327;22;19899;-81
2020/12/24 03:13:22;;;;;;;;;;;;;;;;;;6306042;22;19902;-80
2020/12/24 03:15:48;;;;;;;;;;;;;;;;;;6306206;22;19899;-81
2020/12/24 03:18:14;;;;;;;;;;;;;;;;;;6305959;22;19902;-81
2020/12/24 03:20:39;;;;;;;;;;;;;;;;;;6306289;22;19937;-81
2020/12/24 03:23:05;;;;;;;;;;;;;;;;;;6305902;22;19934;-81
2020/12/24 03:25:31;;;;;;;;;;;;;;;;;;6306060;22;20320;-81
2020/12/24 03:27:57;;;;;;;;;;;;;;;;;;6306366;22;19924;-81
2020/12/24 03:30:23;;;;;;;;;;;;;;;;;;6305576;22;20418;-81
2020/12/24 03:32:49;;;;;;;;;;;;;;;;;;6305951;22;19906;-81
2020/12/24 03:35:15;;;;;;;;;;;;;;;;;;6304478;22;19902;-81
2020/12/24 03:37:41;;;;;;;;;;;;;;;;;;6305912;22;19908;-81
2020/12/24 03:40:07;;;;;;;;;;;;;;;;;;6305374;22;19915;-82
2020/12/24 03:42:34;;;;;;;;;;;;;;;;;;6305379;22;19916;-81
2020/12/24 03:45:00;;;;;;;;;;;;;;;;;;6305720;22;20396;-81
2020/12/24 03:47:26;;;;;;;;;;;;;;;;;;6305444;22;19985;-81
2020/12/24 03:49:51;;;;;;;;;;;;;;;;;;6305689;22;19902;-81
2020/12/24 03:52:17;;;;;;;;;;;;;;;;;;6305205;22;19906;-82
2020/12/24 03:54:43;;;;;;;;;;;;;;;;;;6305428;22;19899;-81
2020/12/24 03:57:09;;;;;;;;;;;;;;;;;;6305799;22;19909;-81
2020/12/24 03:59:35;;;;;;;;;;;;;;;;;;6303890;22;20310;-82
2020/12/24 04:02:01;;;;;;;;;;;;;;;;;;6305589;22;19989;-82
2020/12/24 04:04:27;;;;;;;;;;;;;;;;;;6305339;22;19899;-82
2020/12/24 04:06:53;;;;;;;;;;;;;;;;;;6305795;22;20043;-82
2020/12/24 04:09:19;;;;;;;;;;;;;;;;;;6305700;22;19899;-82
2020/12/24 04:11:45;;;;;;;;;;;;;;;;;;6305355;22;19903;-82
2020/12/24 04:14:11;;;;;;;;;;;;;;;;;;6305136;22;19917;-81
2020/12/24 04:16:36;;;;;;;;;;;;;;;;;;6305467;22;19907;-82
2020/12/24 04:19:02;;;;;;;;;;;;;;;;;;6305251;22;19899;-81
2020/12/24 04:21:28;;;;;;;;;;;;;;;;;;6305350;22;19899;-82
2020/12/24 04:23:54;;;;;;;;;;;;;;;;;;6305321;22;19906;-82
2020/12/24 04:26:20;;;;;;;;;;;;;;;;;;6305601;22;19985;-82
2020/12/24 04:28:46;;;;;;;;;;;;;;;;;;6305513;22;19899;-82
2020/12/24 04:31:12;;;;;;;;;;;;;;;;;;6305192;22;19905;-82
2020/12/24 04:33:38;;;;;;;;;;;;;;;;;;6303303;22;20298;-82
2020/12/24 04:36:04;;;;;;;;;;;;;;;;;;6304678;22;20305;-81
2020/12/24 04:38:30;;;;;;;;;;;;;;;;;;6304612;22;19903;-82
2020/12/24 04:40:56;;;;;;;;;;;;;;;;;;6304811;22;19956;-82
2020/12/24 04:43:21;;;;;;;;;;;;;;;;;;6304839;22;19910;-82
2020/12/24 04:45:48;;;;;;;;;;;;;;;;;;6304775;22;19898;-81
2020/12/24 04:48:14;;;;;;;;;;;;;;;;;;6304581;22;19903;-82
2020/12/24 04:50:40;;;;;;;;;;;;;;;;;;6304577;22;19906;-81
2020/12/24 04:53:06;;;;;;;;;;;;;;;;;;6304842;22;19903;-81
2020/12/24 04:55:32;;;;;;;;;;;;;;;;;;6304469;22;19908;-81
2020/12/24 04:57:57;;;;;;;;;;;;;;;;;;6305002;22;19914;-82
2020/12/24 05:00:23;;;;;;;;;;;;;;;;;;6304787;22;19903;-82
2020/12/24 05:02:49;;;;;;;;;;;;;;;;;;6304847;22;19950;-82
2020/12/24 05:05:15;;;;;;;;;;;;;;;;;;6304711;22;20405;-82
2020/12/24 05:07:41;;;;;;;;;;;;;;;;;;6305279;22;19964;-82
2020/12/24 05:10:07;;;;;;;;;;;;;;;;;;6305253;22;19903;-82
2020/12/24 05:12:33;;;;;;;;;;;;;;;;;;6304996;22;19899;-82
2020/12/24 05:15:00;;;;;;;;;;;;;;;;;;6304922;22;20321;-82
2020/12/24 05:17:25;;;;;;;;;;;;;;;;;;6304413;22;20295;-82
2020/12/24 05:19:51;;;;;;;;;;;;;;;;;;6304853;22;19929;-81
2020/12/24 05:22:17;;;;;;;;;;;;;;;;;;6304856;22;19997;-82
2020/12/24 05:24:43;;;;;;;;;;;;;;;;;;6304512;22;19978;-82
2020/12/24 05:27:09;;;;;;;;;;;;;;;;;;6304820;22;19903;-82
2020/12/24 05:29:35;;;;;;;;;;;;;;;;;;6304524;22;19914;-81
2020/12/24 05:32:01;;;;;;;;;;;;;;;;;;6302321;22;19898;-81
2020/12/24 05:34:27;;;;;;;;;;;;;;;;;;6304218;22;19906;-81
2020/12/24 05:36:53;;;;;;;;;;;;;;;;;;6305015;22;19952;-82
2020/12/24 05:39:18;;;;;;;;;;;;;;;;;;6304553;22;19907;-82
2020/12/24 05:41:45;;;;;;;;;;;;;;;;;;6304817;22;19914;-82
2020/12/24 05:44:11;;;;;;;;;;;;;;;;;;6304669;22;19902;-81
2020/12/24 05:46:37;;;;;;;;;;;;;;;;;;6304428;22;19910;-82
2020/12/24 05:49:03;;;;;;;;;;;;;;;;;;6304956;22;19899;-81
2020/12/24 05:51:29;;;;;;;;;;;;;;;;;;6304761;22;20231;-82
2020/12/24 05:53:54;;;;;;;;;;;;;;;;;;6304652;22;19898;-82
2020/12/24 05:56:20;;;;;;;;;;;;;;;;;;6304843;22;20366;-82
2020/12/24 05:58:46;;;;;;;;;;;;;;;;;;6302606;22;19906;-82
2020/12/24 06:01:12;;;;;;;;;;;;;;;;;;6304521;22;19899;-81
2020/12/24 06:03:38;;;;;;;;;;;;;;;;;;6304032;22;19906;-82
2020/12/24 06:06:04;;;;;;;;;;;;;;;;;;6304437;22;19902;-81
2020/12/24 06:08:30;;;;;;;;;;;;;;;;;;6304423;22;19899;-82
2020/12/24 06:10:56;;;;;;;;;;;;;;;;;;6304518;22;19973;-82
2020/12/24 06:13:22;;;;;;;;;;;;;;;;;;6304193;22;19948;-82
2020/12/24 06:15:48;;;;;;;;;;;;;;;;;;6304627;22;20248;-82
2020/12/24 06:18:14;;;;;;;;;;;;;;;;;;6306218;22;19902;-81
2020/12/24 06:20:40;;;;;;;;;;;;;;;;;;6306294;22;19906;-82
2020/12/24 06:23:06;;;;;;;;;;;;;;;;;;6312099;22;19914;-82
2020/12/24 06:25:31;;;;;;;;;;;;;;;;;;6305897;22;19921;-81
2020/12/24 06:27:57;;;;;;;;;;;;;;;;;;6306604;22;19899;-81
2020/12/24 06:30:23;;;;;;;;;;;;;;;;;;6306105;22;19922;-82
2020/12/24 06:32:49;;;;;;;;;;;;;;;;;;6306032;22;19942;-82
2020/12/24 06:35:15;;;;;;;;;;;;;;;;;;6306411;22;19989;-82
2020/12/24 06:37:41;;;;;;;;;;;;;;;;;;6306029;22;20303;-82
2020/12/24 06:40:07;;;;;;;;;;;;;;;;;;6305827;22;19950;-82
2020/12/24 06:42:33;;;;;;;;;;;;;;;;;;6306152;22;19952;-82
2020/12/24 06:44:59;;;;;;;;;;;;;;;;;;6306250;22;19906;-82
2020/12/24 06:47:25;;;;;;;;;;;;;;;;;;6305487;22;19899;-82
2020/12/24 06:49:50;;;;;;;;;;;;;;;;;;6305850;22;19910;-81
2020/12/24 06:52:16;;;;;;;;;;;;;;;;;;6305806;22;19940;-81
2020/12/24 06:54:42;;;;;;;;;;;;;;;;;;6304121;22;19989;-82
2020/12/24 06:57:08;;;;;;;;;;;;;;;;;;6305987;22;19899;-81
2020/12/24 06:59:34;;;;;;;;;;;;;;;;;;6305792;22;19906;-82
2020/12/24 07:02:00;;;;;;;;;;;;;;;;;;6305776;22;20445;-82
2020/12/24 07:04:26;;;;;;;;;;;;;;;;;;6306130;22;19906;-81
2020/12/24 07:06:52;;;;;;;;;;;;;;;;;;6306136;22;19902;-81
2020/12/24 07:09:18;;;;;;;;;;;;;;;;;;6306210;22;19899;-81
2020/12/24 07:11:44;;;;;;;;;;;;;;;;;;6304389;22;19919;-81
2020/12/24 07:14:10;;;;;;;;;;;;;;;;;;6305912;22;19907;-81
2020/12/24 07:16:36;;;;;;;;;;;;;;;;;;6305839;22;19907;-81
2020/12/24 07:19:02;;;;;;;;;;;;;;;;;;6306201;22;19898;-81
2020/12/24 07:21:28;;;;;;;;;;;;;;;;;;6305749;22;19906;-81
2020/12/24 07:23:54;;;;;;;;;;;;;;;;;;6306042;22;19991;-81
2020/12/24 07:26:20;;;;;;;;;;;;;;;;;;6305888;22;20457;-82
2020/12/24 07:28:46;;;;;;;;;;;;;;;;;;6305487;22;19914;-82
2020/12/24 07:31:11;;;;;;;;;;;;;;;;;;6305450;22;19926;-82
2020/12/24 07:33:37;;;;;;;;;;;;;;;;;;6305771;22;19898;-82
2020/12/24 07:36:03;;;;;;;;;;;;;;;;;;6305647;22;19982;-82
2020/12/24 07:38:29;;;;;;;;;;;;;;;;;;6306427;22;20353;-82
2020/12/24 07:40:55;;;;;;;;;;;;;;;;;;6305425;22;19923;-81
2020/12/24 07:43:21;;;;;;;;;;;;;;;;;;6303850;22;19910;-82
2020/12/24 07:45:47;;;;;;;;;;;;;;;;;;6305384;22;19905;-81
2020/12/24 07:48:13;;;;;;;;;;;;;;;;;;6305026;22;19899;-81
2020/12/24 07:50:39;;;;;;;;;;;;;;;;;;6306215;22;19981;-81
2020/12/24 07:53:05;;;;;;;;;;;;;;;;;;6305559;22;20330;-81
2020/12/24 07:55:30;;;;;;;;;;;;;;;;;;6305950;22;19952;-82
2020/12/24 07:57:56;;;;;;;;;;;;;;;;;;6305406;22;20315;-81
2020/12/24 08:00:22;;;;;;;;;;;;;;;;;;6305578;22;19906;-81
2020/12/24 08:02:48;;;;;;;;;;;;;;;;;;6305359;22;20323;-81
2020/12/24 08:05:14;;;;;;;;;;;;;;;;;;6305347;22;19926;-80
2020/12/24 08:07:40;;;;;;;;;;;;;;;;;;6305076;22;20339;-81
2020/12/24 08:10:06;;;;;;;;;;;;;;;;;;6305198;22;19906;-80
2020/12/24 08:12:32;;;;;;;;;;;;;;;;;;6304759;22;20209;-82
2020/12/24 08:14:58;;;;;;;;;;;;;;;;;;6305253;22;20329;-81
2020/12/24 08:17:24;;;;;;;;;;;;;;;;;;6305163;22;19968;-81
2020/12/24 08:19:49;;;;;;;;;;;;;;;;;;6305141;22;19902;-81
2020/12/24 08:22:15;;;;;;;;;;;;;;;;;;6303264;22;19918;-81
2020/12/24 08:24:41;;;;;;;;;;;;;;;;;;6305382;22;20240;-81
2020/12/24 08:27:07;;;;;;;;;;;;;;;;;;6304991;22;20275;-81
2020/12/24 08:29:33;;;;;;;;;;;;;;;;;;6305045;22;19899;-81
2020/12/24 08:31:59;;;;;;;;;;;;;;;;;;6304786;22;19922;-81
2020/12/24 08:34:25;;;;;;;;;;;;;;;;;;6304884;22;19899;-82
2020/12/24 08:36:51;;;;;;;;;;;;;;;;;;6305373;22;19948;-80
2020/12/24 08:39:17;;;;;;;;;;;;;;;;;;6304684;22;19915;-80
2020/12/24 08:41:43;;;;;;;;;;;;;;;;;;6304908;22;20153;-81
2020/12/24 08:44:09;;;;;;;;;;;;;;;;;;6304844;22;20329;-82
2020/12/24 08:46:35;;;;;;;;;;;;;;;;;;6303268;22;19902;-80
2020/12/24 08:49:00;;;;;;;;;;;;;;;;;;6305565;22;19930;-80
2020/12/24 08:51:26;;;;;;;;;;;;;;;;;;6304793;22;20308;-80
2020/12/24 08:53:52;;;;;;;;;;;;;;;;;;6304374;22;19909;-81
2020/12/24 08:56:18;;;;;;;;;;;;;;;;;;6304292;22;20239;-80
2020/12/24 08:58:44;;;;;;;;;;;;;;;;;;6304441;22;19929;-81
2020/12/24 09:01:10;;;;;;;;;;;;;;;;;;6303730;22;20312;-81
2020/12/24 09:03:36;;;;;;;;;;;;;;;;;;6304863;22;19950;-81
2020/12/24 09:06:02;;;;;;;;;;;;;;;;;;6304727;22;20208;-83
2020/12/24 09:08:28;;;;;;;;;;;;;;;;;;6304434;22;19899;-84
2020/12/24 09:10:54;;;;;;;;;;;;;;;;;;6304362;22;19931;-82
2020/12/24 09:13:20;;;;;;;;;;;;;;;;;;6304379;22;19903;-82
2020/12/24 09:15:46;;;;;;;;;;;;;;;;;;6303450;22;20384;-82
2020/12/24 09:18:12;;;;;;;;;;;;;;;;;;6303724;22;19974;-81
2020/12/24 09:20:38;;;;;;;;;;;;;;;;;;6304566;22;19899;-83
2020/12/24 09:23:04;;;;;;;;;;;;;;;;;;6304690;22;20328;-83
2020/12/24 09:25:30;;;;;;;;;;;;;;;;;;6304550;22;19906;-83
2020/12/24 09:27:56;;;;;;;;;;;;;;;;;;6304760;22;20278;-82
2020/12/24 09:30:22;;;;;;;;;;;;;;;;;;6304517;22;19899;-83
2020/12/24 09:32:48;;;;;;;;;;;;;;;;;;6304544;22;19903;-83
2020/12/24 09:35:14;;;;;;;;;;;;;;;;;;6304645;22;19975;-84
2020/12/24 09:37:39;;;;;;;;;;;;;;;;;;6302518;22;19898;-82
2020/12/24 09:40:05;;;;;;;;;;;;;;;;;;6302521;22;19915;-81
2020/12/24 09:42:31;;;;;;;;;;;;;;;;;;6303534;22;20030;-81
2020/12/24 09:44:57;;;;;;;;;;;;;;;;;;6303624;22;20002;-80
2020/12/24 09:47:23;;;;;;;;;;;;;;;;;;6304465;22;19899;-80
2020/12/24 09:49:49;;;;;;;;;;;;;;;;;;6303315;22;19899;-80
2020/12/24 09:52:15;;;;;;;;;;;;;;;;;;6305522;22;19909;-82
2020/12/24 09:54:41;;;;;;;;;;;;;;;;;;6305834;22;19927;-81
2020/12/24 09:57:07;;;;;;;;;;;;;;;;;;6305585;22;19982;-81
2020/12/24 09:59:33;;;;;;;;;;;;;;;;;;6304906;22;19918;-82
2020/12/24 10:01:59;;;;;;;;;;;;;;;;;;6304023;22;19946;-82
2020/12/24 10:04:24;;;;;;;;;;;;;;;;;;6306698;22;20339;-81
2020/12/24 10:06:50;;;;;;;;;;;;;;;;;;6306423;22;19899;-81
2020/12/24 10:09:17;;;;;;;;;;;;;;;;;;6303235;22;19902;-81
2020/12/24 10:11:43;;;;;;;;;;;;;;;;;;6303990;22;19910;-82
2020/12/24 10:14:09;;;;;;;;;;;;;;;;;;6305464;22;19899;-82
2020/12/24 10:16:35;;;;;;;;;;;;;;;;;;6304617;22;20320;-82
2020/12/24 10:19:01;;;;;;;;;;;;;;;;;;6305909;22;19956;-82
2020/12/24 10:21:27;;;;;;;;;;;;;;;;;;6299712;22;19952;-80
2020/12/24 10:23:53;;;;;;;;;;;;;;;;;;6305653;22;20477;-82
2020/12/24 10:26:20;;;;;;;;;;;;;;;;;;6306173;22;19938;-81
2020/12/24 10:28:46;;;;;;;;;;;;;;;;;;6306100;22;19902;-81
2020/12/24 10:31:12;;;;;;;;;;;;;;;;;;6304778;22;19899;-82
2020/12/24 10:33:38;;;;;;;;;;;;;;;;;;6306139;22;19978;-82
2020/12/24 10:36:04;;;;;;;;;;;;;;;;;;6305800;22;20383;-82
2020/12/24 10:38:30;;;;;;;;;;;;;;;;;;6305106;22;19903;-81
2020/12/24 10:40:56;;;;;;;;;;;;;;;;;;6304904;22;19919;-81
2020/12/24 10:43:22;;;;;;;;;;;;;;;;;;6303213;22;19914;-81
2020/12/24 10:45:48;;;;;;;;;;;;;;;;;;6305023;22;19903;-81
2020/12/24 10:48:13;;;;;;;;;;;;;;;;;;6305710;22;19903;-79
2020/12/24 10:50:39;;;;;;;;;;;;;;;;;;6305082;22;20299;-79
2020/12/24 10:53:05;;;;;;;;;;;;;;;;;;6304751;22;19933;-79
2020/12/24 10:55:31;;;;;;;;;;;;;;;;;;6305177;22;19899;-78
2020/12/24 10:57:57;;;;;;;;;;;;;;;;;;6304837;22;19898;-77
2020/12/24 11:00:23;;;;;;;;;;;;;;;;;;6305368;22;19906;-78
2020/12/24 11:02:49;;;;;;;;;;;;;;;;;;6303031;22;19914;-79
2020/12/24 11:05:15;;;;;;;;;;;;;;;;;;6303725;22;19929;-80
2020/12/24 11:07:41;;;;;;;;;;;;;;;;;;6304422;22;19910;-80
2020/12/24 11:10:06;;;;;;;;;;;;;;;;;;6309369;22;19909;-81
2020/12/24 11:12:32;;;;;;;;;;;;;;;;;;6305537;22;20328;-85
2020/12/24 11:14:58;;;;;;;;;;;;;;;;;;6305542;22;19899;-81
2020/12/24 11:17:24;;;;;;;;;;;;;;;;;;6304960;22;19945;-81
2020/12/24 11:19:50;;;;;;;;;;;;;;;;;;6305886;22;19903;-81
2020/12/24 11:22:16;;;;;;;;;;;;;;;;;;6304781;22;19921;-81
2020/12/24 11:24:42;;;;;;;;;;;;;;;;;;6304247;22;19985;-82
2020/12/24 11:27:08;;;;;;;;;;;;;;;;;;6306008;22;19930;-81
2020/12/24 11:29:34;;;;;;;;;;;;;;;;;;6306033;22;19898;-82
2020/12/24 11:32:00;;;;;;;;;;;;;;;;;;6305991;22;19933;-81
2020/12/24 11:34:29;;;;;;;;;;;;;;;;;;6306046;22;19903;-81
2020/12/24 11:36:55;;;;;;;;;;;;;;;;;;6306219;22;19918;-80
2020/12/24 11:39:21;;;;;;;;;;;;;;;;;;6305847;22;19918;-81
2020/12/24 11:41:47;;;;;;;;;;;;;;;;;;6305442;22;19903;-80
2020/12/24 11:44:13;;;;;;;;;;;;;;;;;;6304794;22;20312;-80
2020/12/24 11:46:39;;;;;;;;;;;;;;;;;;6305378;22;19898;-80
2020/12/24 11:49:05;;;;;;;;;;;;;;;;;;6304387;22;19898;-80
2020/12/24 11:51:31;;;;;;;;;;;;;;;;;;6305756;22;19973;-80
2020/12/24 11:53:57;;;;;;;;;;;;;;;;;;6306390;22;19899;-79
2020/12/24 11:56:23;;;;;;;;;;;;;;;;;;6305636;22;19903;-80
2020/12/24 11:58:48;;;;;;;;;;;;;;;;;;6306160;22;19927;-80
2020/12/24 12:01:14;;;;;;;;;;;;;;;;;;6305394;22;19899;-80
2020/12/24 12:03:40;;;;;;;;;;;;;;;;;;6305450;22;19993;-81
2020/12/24 12:06:06;;;;;;;;;;;;;;;;;;6306250;22;19908;-80
2020/12/24 12:08:32;;;;;;;;;;;;;;;;;;6305457;22;19921;-80
2020/12/24 12:10:59;;;;;;;;;;;;;;;;;;6303763;22;19899;-81
2020/12/24 12:13:24;;;;;;;;;;;;;;;;;;6303495;22;19903;-81
2020/12/24 12:15:50;;;;;;;;;;;;;;;;;;6305587;22;19969;-83
2020/12/24 12:18:16;;;;;;;;;;;;;;;;;;6305712;22;19905;-84
2020/12/24 12:20:42;;;;;;;;;;;;;;;;;;6305093;22;20313;-84
2020/12/24 12:23:08;;;;;;;;;;;;;;;;;;6305551;22;19993;-84
2020/12/24 12:25:34;;;;;;;;;;;;;;;;;;6306697;22;19905;-84
2020/12/24 12:28:00;;;;;;;;;;;;;;;;;;6306386;22;19898;-83
2020/12/24 12:30:26;;;;;;;;;;;;;;;;;;6307321;22;19909;-85
2020/12/24 12:32:52;;;;;;;;;;;;;;;;;;6306343;22;20232;-83
2020/12/24 12:35:19;;;;;;;;;;;;;;;;;;6304960;22;19910;-85
2020/12/24 12:37:45;;;;;;;;;;;;;;;;;;6306706;22;19898;-90
2020/12/24 12:40:11;;;;;;;;;;;;;;;;;;6309015;22;20403;-84
2020/12/24 12:42:37;;;;;;;;;;;;;;;;;;6307701;22;20339;-85
2020/12/24 12:45:02;;;;;;;;;;;;;;;;;;6310544;22;19899;-86
2020/12/24 12:47:29;;;;;;;;;;;;;;;;;;6310233;22;19906;-85
2020/12/24 12:49:55;;;;;;;;;;;;;;;;;;6305532;22;20270;-86
2020/12/24 12:52:21;;;;;;;;;;;;;;;;;;6307309;22;19948;-88
2020/12/24 12:54:47;;;;;;;;;;;;;;;;;;6305605;22;19976;-81
2020/12/24 12:57:15;;;;;;;;;;;;;;;;;;6307838;22;20235;-92
2020/12/24 12:59:41;;;;;;;;;;;;;;;;;;6305439;22;19898;-84
2020/12/24 13:02:07;;;;;;;;;;;;;;;;;;6307254;22;19914;-90
2020/12/24 13:04:33;;;;;;;;;;;;;;;;;;6307925;22;20308;-89
2020/12/24 13:06:59;;;;;;;;;;;;;;;;;;6311616;22;19899;-91
2020/12/24 13:09:24;;;;;;;;;;;;;;;;;;6308320;22;20288;-88
2020/12/24 13:11:51;;;;;;;;;;;;;;;;;;6305183;22;19903;-80
2020/12/24 13:14:19;;;;;;;;;;;;;;;;;;6303050;22;20000;-80
2020/12/24 13:16:45;;;;;;;;;;;;;;;;;;6303603;22;19925;-81
2020/12/24 13:19:11;;;;;;;;;;;;;;;;;;6303556;22;19907;-82
2020/12/24 13:21:36;;;;;;;;;;;;;;;;;;6303112;22;20003;-84
2020/12/24 13:24:02;;;;;;;;;;;;;;;;;;6305521;22;19899;-83
2020/12/24 13:26:28;;;;;;;;;;;;;;;;;;6309196;22;19899;-85
2020/12/24 13:28:54;;;;;;;;;;;;;;;;;;6309048;22;19898;-87
2020/12/24 13:31:20;;;;;;;;;;;;;;;;;;6309564;22;19910;-85
2020/12/24 13:33:46;;;;;;;;;;;;;;;;;;6318707;22;19911;-86
2020/12/24 13:36:12;;;;;;;;;;;;;;;;;;6306788;22;19903;-87
2020/12/24 13:38:38;;;;;;;;;;;;;;;;;;6309253;22;19903;-84
2020/12/24 13:41:04;;;;;;;;;;;;;;;;;;6309480;22;19918;-86
2020/12/24 13:43:30;;;;;;;;;;;;;;;;;;6308496;22;20370;-88
2020/12/24 13:45:56;;;;;;;;;;;;;;;;;;6309402;22;19903;-86
2020/12/24 13:48:22;;;;;;;;;;;;;;;;;;6308978;22;19909;-87
2020/12/24 13:50:49;;;;;;;;;;;;;;;;;;6308500;22;20407;-88
2020/12/24 13:53:15;;;;;;;;;;;;;;;;;;6309076;22;19899;-88
2020/12/24 13:55:41;;;;;;;;;;;;;;;;;;6308756;22;19906;-90
2020/12/24 13:58:07;;;;;;;;;;;;;;;;;;6308978;22;20308;-88
2020/12/24 14:00:33;;;;;;;;;;;;;;;;;;6308911;22;19946;-87
2020/12/24 14:02:59;;;;;;;;;;;;;;;;;;6308143;22;19988;-87
2020/12/24 14:05:25;;;;;;;;;;;;;;;;;;6309297;22;20247;-91
2020/12/24 14:07:51;;;;;;;;;;;;;;;;;;6309155;22;19938;-85
2020/12/24 14:10:16;;;;;;;;;;;;;;;;;;6306022;22;19969;-87
2020/12/24 14:12:43;;;;;;;;;;;;;;;;;;6308443;22;19948;-86
2020/12/24 14:15:09;;;;;;;;;;;;;;;;;;6308291;22;19976;-86
2020/12/24 14:17:35;;;;;;;;;;;;;;;;;;6308302;22;19907;-86
2020/12/24 14:20:01;;;;;;;;;;;;;;;;;;6307968;22;19925;-88
2020/12/24 14:22:27;;;;;;;;;;;;;;;;;;6308302;22;19942;-87
2020/12/24 14:24:53;;;;;;;;;;;;;;;;;;6307992;22;19956;-88
2020/12/24 14:27:18;;;;;;;;;;;;;;;;;;6310032;22;20239;-90
2020/12/24 14:29:44;;;;;;;;;;;;;;;;;;6312321;22;20237;-91
2020/12/24 14:32:11;;;;;;;;;;;;;;;;;;6313161;22;19902;-91
2020/12/24 14:34:36;;;;;;;;;;;;;;;;;;6314154;22;19977;-90
2020/12/24 14:37:02;;;;;;;;;;;;;;;;;;6312419;22;19899;-91
2020/12/24 14:39:31;;;;;;;;;;;;;;;;;;6311384;22;20303;-91
2020/12/24 14:41:57;;;;;;;;;;;;;;;;;;6313332;22;20316;-93
2020/12/24 14:44:23;;;;;;;;;;;;;;;;;;6311822;22;19899;-89
2020/12/24 14:46:49;;;;;;;;;;;;;;;;;;6310168;22;19903;-91
2020/12/24 14:49:15;;;;;;;;;;;;;;;;;;6311154;22;20308;-91
2020/12/24 14:51:40;;;;;;;;;;;;;;;;;;6314070;22;19935;-91
2020/12/24 14:54:06;;;;;;;;;;;;;;;;;;6311105;22;19929;-92
2020/12/24 14:56:32;;;;;;;;;;;;;;;;;;6312260;22;19906;-91
2020/12/24 14:58:58;;;;;;;;;;;;;;;;;;6310819;22;19899;-90
2020/12/24 15:01:24;;;;;;;;;;;;;;;;;;6309822;22;19920;-91
2020/12/24 15:03:50;;;;;;;;;;;;;;;;;;6310644;22;19913;-82
2020/12/24 15:06:16;;;;;;;;;;;;;;;;;;6305024;22;19911;-80
2020/12/24 15:08:42;;;;;;;;;;;;;;;;;;6305632;22;19903;-81
2020/12/24 15:11:08;;;;;;;;;;;;;;;;;;6306387;22;19909;-80
2020/12/24 15:13:33;;;;;;;;;;;;;;;;;;6306220;22;19899;-80
2020/12/24 15:15:59;;;;;;;;;;;;;;;;;;6306239;22;19903;-80
2020/12/24 15:18:25;;;;;;;;;;;;;;;;;;6306206;22;19949;-80
2020/12/24 15:20:51;;;;;;;;;;;;;;;;;;6305891;22;19926;-80
2020/12/24 15:23:17;;;;;;;;;;;;;;;;;;6306288;22;19907;-81
2020/12/24 15:25:43;;;;;;;;;;;;;;;;;;6305960;22;19991;-80
2020/12/24 15:28:09;;;;;;;;;;;;;;;;;;6304231;22;19903;-80
2020/12/24 15:30:35;;;;;;;;;;;;;;;;;;6305270;22;19948;-80
2020/12/24 15:33:01;;;;;;;;;;;;;;;;;;6305908;22;19902;-80
2020/12/24 15:35:27;;;;;;;;;;;;;;;;;;6305362;22;19905;-80
2020/12/24 15:37:52;;;;;;;;;;;;;;;;;;6301294;22;19985;-84
2020/12/24 15:40:18;;;;;;;;;;;;;;;;;;6303472;22;20289;-80
2020/12/24 15:42:44;;;;;;;;;;;;;;;;;;6304973;22;19910;-84
2020/12/24 15:45:10;;;;;;;;;;;;;;;;;;6306148;22;19949;-86
2020/12/24 15:47:36;;;;;;;;;;;;;;;;;;6306265;22;19914;-82
2020/12/24 15:50:02;;;;;;;;;;;;;;;;;;6305596;22;19906;-83
2020/12/24 15:52:28;;;;;;;;;;;;;;;;;;6305054;22;19899;-83
2020/12/24 15:54:54;;;;;;;;;;;;;;;;;;6303803;22;19898;-81
2020/12/24 15:57:20;;;;;;;;;;;;;;;;;;6304317;22;19899;-83
2020/12/24 15:59:46;;;;;;;;;;;;;;;;;;6304715;22;20366;-82
2020/12/24 16:02:12;;;;;;;;;;;;;;;;;;6304433;22;19918;-82
2020/12/24 16:04:37;;;;;;;;;;;;;;;;;;6316962;22;20363;-81
2020/12/24 16:07:03;;;;;;;;;;;;;;;;;;6305196;22;19926;-82
2020/12/24 16:09:29;;;;;;;;;;;;;;;;;;6306024;22;20304;-79
2020/12/24 16:11:55;;;;;;;;;;;;;;;;;;6306401;22;19943;-82
2020/12/24 16:14:21;;;;;;;;;;;;;;;;;;6306193;22;19902;-81
2020/12/24 16:16:47;;;;;;;;;;;;;;;;;;6305540;22;20345;-81
2020/12/24 16:19:13;;;;;;;;;;;;;;;;;;6306037;22;19899;-81
2020/12/24 16:21:39;;;;;;;;;;;;;;;;;;6307514;22;19899;-80
2020/12/24 16:24:05;;;;;;;;;;;;;;;;;;6307682;22;19913;-84
2020/12/24 16:26:31;;;;;;;;;;;;;;;;;;6311713;22;19902;-84
2020/12/24 16:28:57;;;;;;;;;;;;;;;;;;6312272;22;19910;-83
2020/12/24 16:31:23;;;;;;;;;;;;;;;;;;6311031;22;20262;-84
2020/12/24 16:33:49;;;;;;;;;;;;;;;;;;6306213;22;19960;-84
2020/12/24 16:36:14;;;;;;;;;;;;;;;;;;6305922;22;19903;-85